createdAt,value
2018-03-08T06:39:55.932Z,998.36
2018-03-08T06:41:04.908Z,998.33
2018-03-08T06:42:13.818Z,998.28
2018-03-08T06:43:22.766Z,998.3
2018-03-08T06:44:32.196Z,998.32
2018-03-08T06:45:41.129Z,998.34
2018-03-08T06:46:50.095Z,998.33
2018-03-08T06:47:59.084Z,998.33
2018-03-08T06:49:08.522Z,998.3
2018-03-08T06:50:17.437Z,998.27
2018-03-08T06:51:26.142Z,998.27
2018-03-08T06:52:35.095Z,998.25
2018-03-08T06:53:44.306Z,998.24
2018-03-08T06:54:53.231Z,998.18
2018-03-08T06:56:02.433Z,998.21
2018-03-08T06:57:11.141Z,998.21
2018-03-08T06:58:20.668Z,998.21
2018-03-08T06:59:29.326Z,998.24
2018-03-08T07:00:39.034Z,998.21
2018-03-08T07:01:48.532Z,998.24
2018-03-08T07:02:58.018Z,998.2
2018-03-08T07:04:06.664Z,998.17
2018-03-08T07:05:15.303Z,998.26
2018-03-08T07:06:23.936Z,998.21
2018-03-08T07:07:33.390Z,998.24
2018-03-08T07:08:42.327Z,998.22
2018-03-08T07:09:51.271Z,998.21
2018-03-08T07:11:00.404Z,998.23
2018-03-08T07:12:09.829Z,998.22
2018-03-08T07:13:19.024Z,998.21
2018-03-08T07:14:27.936Z,998.19
2018-03-08T07:15:36.841Z,998.21
2018-03-08T07:16:45.977Z,998.2
2018-03-08T07:17:54.675Z,998.2
2018-03-08T07:19:03.578Z,998.21
2018-03-08T07:20:12.492Z,998.22
2018-03-08T07:21:21.660Z,998.23
2018-03-08T07:22:30.876Z,998.22
2018-03-08T07:23:40.012Z,998.25
2018-03-08T07:24:49.689Z,998.26
2018-03-08T07:25:58.628Z,998.34
2018-03-08T07:27:08.362Z,998.3
2018-03-08T07:28:17.545Z,998.29
2018-03-08T07:29:26.733Z,998.38
2018-03-08T07:30:35.940Z,998.39
2018-03-08T07:31:45.369Z,998.42
2018-03-08T07:32:54.362Z,998.46
2018-03-08T07:34:03.346Z,998.46
2018-03-08T07:35:12.289Z,998.49
2018-03-08T07:36:21.284Z,998.52
2018-03-08T07:37:30.761Z,998.49
2018-03-08T07:38:40.731Z,998.5
2018-03-08T07:39:49.669Z,998.51
2018-03-08T07:40:58.331Z,998.51
2018-03-08T07:42:07.627Z,998.4
2018-03-08T07:43:16.379Z,998.39
2018-03-08T07:44:25.315Z,998.4
2018-03-08T07:45:34.276Z,998.38
2018-03-08T07:46:43.713Z,998.38
2018-03-08T07:47:53.137Z,998.41
2018-03-08T07:49:02.336Z,998.41
2018-03-08T07:50:11.727Z,998.38
2018-03-08T07:51:20.898Z,998.28
2018-03-08T07:52:30.110Z,998.36
2018-03-08T07:53:39.292Z,998.28
2018-03-08T07:54:48.462Z,998.29
2018-03-08T07:55:57.120Z,998.26
2018-03-08T07:57:06.038Z,998.26
2018-03-08T07:58:15.255Z,998.24
2018-03-08T07:59:24.427Z,998.28
2018-03-08T08:00:33.853Z,998.25
2018-03-08T08:01:43.075Z,998.21
2018-03-08T08:02:52.572Z,998.18
2018-03-08T08:04:02.011Z,998.2
2018-03-08T08:05:11.724Z,998.18
2018-03-08T08:06:20.379Z,998.13
2018-03-08T08:07:29.328Z,998.12
2018-03-08T08:08:37.983Z,998.11
2018-03-08T08:09:47.512Z,998.13
2018-03-08T08:10:56.453Z,998.05
2018-03-08T08:12:05.367Z,998.04
2018-03-08T08:13:14.029Z,998.05
2018-03-08T08:14:22.947Z,998.07
2018-03-08T08:15:31.618Z,998.06
2018-03-08T08:16:40.802Z,997.99
2018-03-08T08:17:50.390Z,998
2018-03-08T08:19:00.210Z,997.99
2018-03-08T08:20:09.423Z,998.02
2018-03-08T08:21:19.418Z,998.03
2018-03-08T08:22:28.712Z,997.98
2018-03-08T08:23:37.624Z,998.02
2018-03-08T08:24:47.333Z,997.94
2018-03-08T08:25:56.276Z,997.9
2018-03-08T08:27:05.480Z,997.93
2018-03-08T08:28:14.943Z,997.97
2018-03-08T08:29:24.127Z,998.03
2018-03-08T08:30:33.047Z,998.02
2018-03-08T08:31:42.240Z,997.99
2018-03-08T08:32:51.020Z,998.03
2018-03-08T08:33:59.685Z,998.08
2018-03-08T08:35:08.918Z,998.04
2018-03-08T08:36:18.134Z,998.04
2018-03-08T08:37:26.869Z,998.06
2018-03-08T08:38:36.249Z,998.02
2018-03-08T08:39:45.483Z,998.02
2018-03-08T08:40:54.970Z,997.99
2018-03-08T08:42:03.957Z,997.99
2018-03-08T08:43:13.238Z,997.98
2018-03-08T08:44:22.441Z,997.96
2018-03-08T08:45:31.410Z,997.93
2018-03-08T08:46:40.438Z,997.86
2018-03-08T08:47:49.912Z,997.9
2018-03-08T08:48:59.385Z,997.91
2018-03-08T08:50:08.610Z,997.92
2018-03-08T08:51:17.732Z,997.86
2018-03-08T08:52:26.444Z,997.86
2018-03-08T08:53:35.653Z,997.89
2018-03-08T08:54:44.916Z,997.87
2018-03-08T08:55:53.868Z,997.84
2018-03-08T08:57:03.079Z,997.84
2018-03-08T08:58:11.734Z,997.85
2018-03-08T08:59:20.399Z,997.8
2018-03-08T09:00:29.341Z,997.81
2018-03-08T09:01:38.511Z,997.83
2018-03-08T09:02:47.209Z,997.85
2018-03-08T09:03:56.116Z,997.78
2018-03-08T09:05:05.043Z,997.81
2018-03-08T09:06:13.967Z,997.8
2018-03-08T09:07:23.398Z,997.77
2018-03-08T09:08:32.700Z,997.83
2018-03-08T09:09:41.884Z,997.8
2018-03-08T09:10:51.057Z,997.78
2018-03-08T09:11:59.746Z,997.82
2018-03-08T09:13:08.956Z,997.82
2018-03-08T09:14:17.617Z,997.84
2018-03-08T09:15:26.273Z,997.77
2018-03-08T09:16:35.768Z,997.82
2018-03-08T09:17:45.008Z,997.82
2018-03-08T09:18:54.345Z,997.75
2018-03-08T09:20:03.793Z,997.75
2018-03-08T09:21:12.730Z,997.69
2018-03-08T09:22:21.927Z,997.68
2018-03-08T09:23:30.830Z,997.7
2018-03-08T09:24:39.507Z,997.58
2018-03-08T09:25:48.678Z,997.58
2018-03-08T09:26:57.416Z,997.56
2018-03-08T09:28:06.323Z,997.59
2018-03-08T09:29:15.327Z,997.54
2018-03-08T09:30:24.533Z,997.53
2018-03-08T09:31:33.963Z,997.51
2018-03-08T09:32:42.867Z,997.53
2018-03-08T09:33:51.792Z,997.55
2018-03-08T09:35:00.687Z,997.54
2018-03-08T09:36:09.366Z,997.47
2018-03-08T09:37:18.581Z,997.49
2018-03-08T09:38:28.630Z,997.47
2018-03-08T09:39:37.547Z,997.49
2018-03-08T09:40:46.208Z,997.51
2018-03-08T09:41:55.118Z,997.5
2018-03-08T09:43:03.799Z,997.48
2018-03-08T09:44:13.222Z,997.48
2018-03-08T09:45:22.736Z,997.45
2018-03-08T09:46:31.905Z,997.45
2018-03-08T09:47:41.628Z,997.43
2018-03-08T09:48:50.272Z,997.41
2018-03-08T09:49:58.943Z,997.41
2018-03-08T09:51:07.615Z,997.41
2018-03-08T09:52:17.103Z,997.42
2018-03-08T09:53:26.034Z,997.37
2018-03-08T09:54:35.285Z,997.33
2018-03-08T09:55:44.204Z,997.34
2018-03-08T09:56:52.873Z,997.38
2018-03-08T09:58:01.593Z,997.39
2018-03-08T09:59:10.252Z,997.42
2018-03-08T10:00:19.178Z,997.41
2018-03-08T10:01:28.924Z,997.37
2018-03-08T10:02:38.159Z,997.36
2018-03-08T10:03:47.616Z,997.35
2018-03-08T10:04:56.819Z,997.32
2018-03-08T10:06:05.483Z,997.37
2018-03-08T10:07:14.976Z,997.3
2018-03-08T10:08:23.913Z,997.34
2018-03-08T10:09:33.617Z,997.31
2018-03-08T10:10:42.810Z,997.34
2018-03-08T10:11:51.735Z,997.28
2018-03-08T10:13:01.437Z,997.26
2018-03-08T10:14:10.581Z,997.26
2018-03-08T10:15:19.801Z,997.3
2018-03-08T10:16:29.219Z,997.27
2018-03-08T10:17:38.224Z,997.22
2018-03-08T10:18:47.790Z,997.2
2018-03-08T10:19:56.527Z,997.21
2018-03-08T10:21:05.193Z,997.23
2018-03-08T10:22:14.390Z,997.25
2018-03-08T10:23:23.841Z,997.21
2018-03-08T10:24:33.004Z,997.17
2018-03-08T10:25:42.284Z,997.13
2018-03-08T10:26:51.491Z,997.1
2018-03-08T10:28:01.190Z,997.08
2018-03-08T10:29:10.158Z,997.07
2018-03-08T10:30:19.121Z,997.03
2018-03-08T10:31:27.815Z,997.05
2018-03-08T10:32:36.463Z,997.03
2018-03-08T10:33:45.161Z,996.96
2018-03-08T10:34:54.362Z,997.01
2018-03-08T10:36:03.579Z,996.99
2018-03-08T10:37:12.803Z,996.96
2018-03-08T10:38:21.484Z,996.95
2018-03-08T10:39:30.427Z,997.01
2018-03-08T10:41:51.990Z,997.06
2018-03-08T10:43:01.444Z,997.02
2018-03-08T10:44:10.639Z,997.03
2018-03-08T10:45:19.893Z,997.05
2018-03-08T10:46:29.345Z,997.06
2018-03-08T10:47:38.540Z,997.11
2018-03-08T10:50:09.251Z,997.05
2018-03-08T10:51:18.737Z,997.03
2018-03-08T10:52:27.931Z,997.01
2018-03-08T10:53:36.854Z,997.02
2018-03-08T10:54:46.047Z,997.05
2018-03-08T10:55:55.493Z,996.98
2018-03-08T10:57:04.689Z,997.02
2018-03-08T10:58:13.872Z,996.98
2018-03-08T10:59:23.298Z,996.87
2018-03-08T11:00:31.989Z,996.96
2018-03-08T11:01:41.177Z,996.9
2018-03-08T11:02:51.902Z,996.84
2018-03-08T11:04:00.835Z,996.85
2018-03-08T11:05:10.041Z,996.85
2018-03-08T11:06:18.729Z,996.84
2018-03-08T11:07:27.746Z,996.88
2018-03-08T11:08:36.414Z,996.77
2018-03-08T11:09:45.347Z,996.85
2018-03-08T11:13:27.170Z,996.85
2018-03-08T11:14:35.858Z,996.77
2018-03-08T11:15:45.063Z,996.76
2018-03-08T11:16:54.277Z,996.75
2018-03-08T11:20:35.312Z,996.69
2018-03-08T11:21:44.541Z,996.73
2018-03-08T11:22:53.461Z,996.74
2018-03-08T11:24:02.474Z,996.7
2018-03-08T11:25:12.199Z,996.69
2018-03-08T11:26:21.100Z,996.67
2018-03-08T11:27:30.574Z,996.64
2018-03-08T11:28:40.024Z,996.65
2018-03-08T11:29:48.690Z,996.66
2018-03-08T11:30:57.954Z,996.69
2018-03-08T11:32:07.114Z,996.6
2018-03-08T11:33:16.342Z,996.53
2018-03-08T11:34:25.303Z,996.55
2018-03-08T11:35:34.441Z,996.61
2018-03-08T11:36:43.700Z,996.55
2018-03-08T11:37:52.453Z,996.54
2018-03-08T11:39:01.641Z,996.5
2018-03-08T11:40:12.452Z,996.52
2018-03-08T11:41:23.146Z,996.52
2018-03-08T11:42:31.105Z,996.51
2018-03-08T11:43:40.579Z,996.45
2018-03-08T11:44:49.561Z,996.47
2018-03-08T11:45:58.999Z,996.44
2018-03-08T11:47:08.451Z,996.37
2018-03-08T11:48:17.659Z,996.42
2018-03-08T11:49:26.826Z,996.35
2018-03-08T11:50:35.529Z,996.28
2018-03-08T11:51:44.429Z,996.37
2018-03-08T11:52:53.349Z,996.35
2018-03-08T11:54:02.267Z,996.31
2018-03-08T11:55:11.685Z,996.44
2018-03-08T11:56:20.599Z,996.32
2018-03-08T11:57:29.525Z,996.31
2018-03-08T11:58:39.228Z,996.32
2018-03-08T11:59:48.150Z,996.34
2018-03-08T12:00:57.047Z,996.29
2018-03-08T12:02:05.957Z,996.37
2018-03-08T12:03:14.635Z,996.24
2018-03-08T12:04:23.838Z,996.19
2018-03-08T12:05:32.572Z,996.16
2018-03-08T12:06:42.425Z,996.18
2018-03-08T12:07:51.367Z,996.1
2018-03-08T12:09:00.100Z,996.12
2018-03-08T12:10:09.573Z,996.14
2018-03-08T12:11:18.494Z,996.2
2018-03-08T12:12:27.168Z,996.19
2018-03-08T12:13:36.420Z,996.15
2018-03-08T12:14:45.582Z,996.01
2018-03-08T12:15:55.343Z,996.02
2018-03-08T12:17:04.560Z,996.01
2018-03-08T12:18:13.510Z,996.03
2018-03-08T12:19:22.985Z,995.98
2018-03-08T12:20:32.207Z,996
2018-03-08T12:21:41.396Z,995.97
2018-03-08T12:22:50.361Z,995.93
2018-03-08T12:23:58.984Z,995.94
2018-03-08T12:25:07.925Z,995.87
2018-03-08T12:26:17.177Z,995.83
2018-03-08T12:27:26.361Z,995.77
2018-03-08T12:28:35.277Z,995.77
2018-03-08T12:29:44.266Z,995.87
2018-03-08T12:30:53.230Z,995.83
2018-03-08T12:32:02.433Z,995.78
2018-03-08T12:33:11.352Z,995.85
2018-03-08T12:34:20.525Z,995.78
2018-03-08T12:35:30.314Z,995.72
2018-03-08T12:36:40.028Z,995.71
2018-03-08T12:37:49.254Z,995.73
2018-03-08T12:38:58.487Z,995.75
2018-03-08T12:40:07.757Z,995.69
2018-03-08T12:41:17.143Z,995.67
2018-03-08T12:42:26.013Z,995.68
2018-03-08T12:43:35.456Z,995.72
2018-03-08T12:44:44.961Z,995.67
2018-03-08T12:45:53.906Z,995.63
2018-03-08T12:47:03.333Z,995.58
2018-03-08T12:48:12.268Z,995.66
2018-03-08T12:49:21.199Z,995.56
2018-03-08T12:50:30.412Z,995.54
2018-03-08T12:51:39.370Z,995.58
2018-03-08T12:52:48.615Z,995.57
2018-03-08T12:53:57.529Z,995.52
2018-03-08T12:55:06.480Z,995.56
2018-03-08T12:56:15.436Z,995.57
2018-03-08T12:57:24.674Z,995.53
2018-03-08T12:58:34.125Z,995.54
2018-03-08T12:59:43.859Z,995.56
2018-03-08T13:00:53.063Z,995.54
2018-03-08T13:02:02.589Z,995.59
2018-03-08T13:03:11.509Z,995.52
2018-03-08T13:04:20.223Z,995.47
2018-03-08T13:05:29.789Z,995.53
2018-03-08T13:06:38.459Z,995.51
2018-03-08T13:07:47.396Z,995.51
2018-03-08T13:08:56.332Z,995.45
2018-03-08T13:10:05.519Z,995.53
2018-03-08T13:11:14.987Z,995.48
2018-03-08T13:12:23.644Z,995.47
2018-03-08T13:13:32.881Z,995.4
2018-03-08T13:14:42.087Z,995.42
2018-03-08T13:15:51.002Z,995.43
2018-03-08T13:16:59.667Z,995.42
2018-03-08T13:18:08.847Z,995.39
2018-03-08T13:19:17.817Z,995.36
2018-03-08T13:20:26.823Z,995.34
2018-03-08T13:21:36.006Z,995.35
2018-03-08T13:22:45.227Z,995.24
2018-03-08T13:23:54.147Z,995.23
2018-03-08T13:25:02.814Z,995.28
2018-03-08T13:26:11.752Z,995.31
2018-03-08T13:27:20.669Z,995.34
2018-03-08T13:28:29.604Z,995.29
2018-03-08T13:29:38.519Z,995.34
2018-03-08T13:30:47.731Z,995.31
2018-03-08T13:31:56.965Z,995.21
2018-03-08T13:33:06.409Z,995.26
2018-03-08T13:34:15.103Z,995.21
2018-03-08T13:35:24.279Z,995.17
2018-03-08T13:36:33.742Z,995.16
2018-03-08T13:37:42.731Z,995.15
2018-03-08T13:38:51.912Z,995.11
2018-03-08T13:40:01.375Z,995.09
2018-03-08T13:41:10.600Z,995.09
2018-03-08T13:42:19.816Z,995.04
2018-03-08T13:43:28.477Z,995.04
2018-03-08T13:44:37.723Z,994.99
2018-03-08T13:45:46.911Z,994.91
2018-03-08T13:46:56.353Z,994.89
2018-03-08T13:48:05.271Z,994.9
2018-03-08T13:49:14.209Z,994.88
2018-03-08T13:50:23.690Z,994.93
2018-03-08T13:51:33.140Z,995.05
2018-03-08T13:52:42.039Z,995.07
2018-03-08T13:53:50.959Z,994.97
2018-03-08T13:54:59.627Z,995.05
2018-03-08T13:56:08.555Z,995.11
2018-03-08T13:57:18.054Z,995.14
2018-03-08T13:58:26.964Z,995.13
2018-03-08T13:59:36.238Z,995.12
2018-03-08T14:00:45.946Z,995.19
2018-03-08T14:01:55.708Z,995.18
2018-03-08T14:03:04.618Z,995.17
2018-03-08T14:04:13.277Z,995.21
2018-03-08T14:05:21.924Z,995.23
2018-03-08T14:06:31.104Z,995.18
2018-03-08T14:07:40.629Z,995.2
2018-03-08T14:08:49.600Z,995.2
2018-03-08T14:09:58.542Z,995.13
2018-03-08T14:11:07.799Z,995.13
2018-03-08T14:12:17.578Z,995.05
2018-03-08T14:13:26.818Z,995.05
2018-03-08T14:14:35.766Z,995.03
2018-03-08T14:15:44.931Z,995.03
2018-03-08T14:16:54.355Z,995.05
2018-03-08T14:18:03.266Z,995.11
2018-03-08T14:19:12.470Z,995.03
2018-03-08T14:20:21.381Z,994.97
2018-03-08T14:21:30.856Z,995
2018-03-08T14:22:39.804Z,994.93
2018-03-08T14:23:48.817Z,994.93
2018-03-08T14:24:57.745Z,994.94
2018-03-08T14:26:06.917Z,994.93
2018-03-08T14:27:15.832Z,994.95
2018-03-08T14:28:24.748Z,995.02
2018-03-08T14:29:34.204Z,994.89
2018-03-08T14:30:43.126Z,994.94
2018-03-08T14:31:52.632Z,994.98
2018-03-08T14:33:02.279Z,994.93
2018-03-08T14:34:11.463Z,994.89
2018-03-08T14:35:20.383Z,994.95
2018-03-08T14:36:29.570Z,994.89
2018-03-08T14:37:38.736Z,994.92
2018-03-08T14:38:47.686Z,995
2018-03-08T14:39:57.174Z,994.92
2018-03-08T14:41:06.178Z,994.95
2018-03-08T14:42:15.660Z,994.99
2018-03-08T14:43:25.168Z,995.02
2018-03-08T14:44:34.884Z,994.99
2018-03-08T14:45:43.784Z,995.06
2018-03-08T14:46:53.245Z,995.04
2018-03-08T14:48:02.683Z,995.05
2018-03-08T14:49:11.868Z,995.06
2018-03-08T14:50:20.554Z,994.99
2018-03-08T14:51:29.521Z,994.96
2018-03-08T14:52:38.722Z,994.93
2018-03-08T14:53:47.702Z,994.93
2018-03-08T14:54:56.371Z,994.83
2018-03-08T14:56:05.572Z,994.92
2018-03-08T14:57:14.738Z,994.86
2018-03-08T14:58:23.950Z,994.83
2018-03-08T14:59:33.187Z,994.85
2018-03-08T15:00:42.654Z,994.78
2018-03-08T15:01:51.835Z,994.78
2018-03-08T15:03:00.998Z,994.71
2018-03-08T15:04:10.231Z,994.75
2018-03-08T15:05:18.883Z,994.69
2018-03-08T15:06:28.332Z,994.62
2018-03-08T15:07:37.750Z,994.59
2018-03-08T15:08:47.201Z,994.53
2018-03-08T15:09:56.375Z,994.57
2018-03-08T15:11:06.052Z,994.57
2018-03-08T15:12:15.252Z,994.49
2018-03-08T15:13:24.188Z,994.52
2018-03-08T15:14:33.178Z,994.49
2018-03-08T15:15:42.390Z,994.47
2018-03-08T15:16:51.029Z,994.44
2018-03-08T15:18:00.218Z,994.48
2018-03-08T15:19:09.418Z,994.47
2018-03-08T15:20:18.866Z,994.45
2018-03-08T15:21:28.335Z,994.46
2018-03-08T15:22:37.839Z,994.47
2018-03-08T15:23:47.054Z,994.57
2018-03-08T15:24:56.664Z,994.56
2018-03-08T15:26:05.856Z,994.6
2018-03-08T15:27:15.100Z,994.6
2018-03-08T15:28:24.059Z,994.55
2018-03-08T15:29:33.269Z,994.62
2018-03-08T15:30:42.179Z,994.68
2018-03-08T15:31:51.354Z,994.68
2018-03-08T15:33:00.075Z,994.77
2018-03-08T15:34:09.285Z,994.79
2018-03-08T15:35:19.031Z,994.84
2018-03-08T15:36:27.684Z,994.84
2018-03-08T15:37:36.887Z,994.95
2018-03-08T15:38:46.330Z,994.94
2018-03-08T15:39:55.022Z,995.03
2018-03-08T15:41:03.956Z,995.04
2018-03-08T15:42:12.867Z,995.08
2018-03-08T15:43:22.089Z,995.11
2018-03-08T15:44:31.023Z,995.22
2018-03-08T15:45:39.948Z,995.21
2018-03-08T15:46:49.130Z,995.27
2018-03-08T15:47:58.290Z,995.29
2018-03-08T15:49:07.509Z,995.34
2018-03-08T15:50:16.667Z,995.38
2018-03-08T15:51:25.849Z,995.39
2018-03-08T15:52:34.519Z,995.42
2018-03-08T15:53:43.704Z,995.5
2018-03-08T15:54:52.915Z,995.5
2018-03-08T15:56:02.646Z,995.5
2018-03-08T15:57:11.799Z,995.58
2018-03-08T15:58:20.496Z,995.55
2018-03-08T15:59:29.448Z,995.58
2018-03-08T16:00:38.407Z,995.63
2018-03-08T16:01:48.484Z,995.68
2018-03-08T16:02:58.180Z,995.71
2018-03-08T16:04:06.827Z,995.77
2018-03-08T16:05:16.291Z,995.73
2018-03-08T16:06:25.724Z,995.8
2018-03-08T16:07:35.167Z,995.83
2018-03-08T16:08:43.825Z,995.92
2018-03-08T16:09:52.809Z,995.89
2018-03-08T16:11:02.248Z,995.98
2018-03-08T16:12:11.710Z,996.11
2018-03-08T16:13:20.888Z,996.09
2018-03-08T16:14:29.795Z,996.13
2018-03-08T16:15:38.961Z,996.18
2018-03-08T16:16:48.424Z,996.23
2018-03-08T16:17:57.339Z,996.07
2018-03-08T16:19:06.528Z,995.97
2018-03-08T16:20:15.472Z,995.86
2018-03-08T16:21:24.147Z,995.78
2018-03-08T16:22:33.072Z,995.66
2018-03-08T16:23:42.920Z,995.65
2018-03-08T16:24:51.837Z,995.65
2018-03-08T16:26:01.062Z,995.68
2018-03-08T16:27:10.502Z,995.64
2018-03-08T16:28:19.438Z,995.51
2018-03-08T16:29:28.359Z,995.44
2018-03-08T16:30:37.545Z,995.3
2018-03-08T16:31:46.726Z,995.23
2018-03-08T16:32:55.888Z,995.18
2018-03-08T16:34:05.070Z,995.18
2018-03-08T16:35:14.250Z,995.21
2018-03-08T16:36:23.428Z,995.22
2018-03-08T16:37:33.175Z,995.26
2018-03-08T16:38:41.826Z,995.4
2018-03-08T16:39:51.521Z,995.45
2018-03-08T16:41:00.702Z,995.47
2018-03-08T16:42:09.610Z,995.32
2018-03-08T16:43:18.339Z,995.34
2018-03-08T16:44:27.073Z,995.41
2018-03-08T16:45:35.680Z,995.34
2018-03-08T16:46:44.908Z,995.46
2018-03-08T16:47:53.823Z,995.5
2018-03-08T16:49:02.756Z,995.62
2018-03-08T16:50:12.011Z,995.64
2018-03-08T16:51:21.198Z,995.64
2018-03-08T16:52:30.458Z,995.71
2018-03-08T16:53:39.908Z,995.74
2018-03-08T16:54:49.339Z,995.7
2018-03-08T16:55:58.517Z,995.66
2018-03-08T16:57:08.195Z,995.66
2018-03-08T16:58:17.187Z,995.71
2018-03-08T16:59:26.857Z,995.67
2018-03-08T17:00:35.798Z,995.67
2018-03-08T17:01:44.718Z,995.72
2018-03-08T17:02:53.877Z,995.72
2018-03-08T17:04:03.630Z,995.62
2018-03-08T17:05:12.788Z,995.59
2018-03-08T17:06:21.696Z,995.67
2018-03-08T17:07:30.703Z,995.69
2018-03-08T17:08:39.862Z,995.74
2018-03-08T17:09:48.819Z,995.65
2018-03-08T17:10:57.467Z,995.57
2018-03-08T17:12:06.979Z,995.79
2018-03-08T17:13:15.881Z,995.84
2018-03-08T17:14:24.525Z,995.82
2018-03-08T17:15:33.987Z,995.72
2018-03-08T17:16:43.410Z,995.71
2018-03-08T17:17:52.814Z,995.75
2018-03-08T17:19:02.278Z,995.72
2018-03-08T17:20:11.192Z,995.8
2018-03-08T17:21:20.088Z,995.81
2018-03-08T17:22:29.013Z,995.85
2018-03-08T17:23:37.892Z,995.83
2018-03-08T17:24:46.803Z,995.82
2018-03-08T17:25:56.249Z,995.83
2018-03-08T17:27:05.201Z,995.82
2018-03-08T17:28:14.145Z,995.82
2018-03-08T17:29:23.368Z,995.83
2018-03-08T17:30:32.787Z,995.84
2018-03-08T17:31:42.215Z,995.79
2018-03-08T17:32:51.121Z,995.84
2018-03-08T17:34:00.295Z,995.92
2018-03-08T17:35:09.731Z,995.88
2018-03-08T17:36:18.632Z,995.9
2018-03-08T17:37:27.800Z,995.95
2018-03-08T17:38:36.436Z,995.94
2018-03-08T17:39:45.324Z,995.97
2018-03-08T17:40:53.960Z,996.03
2018-03-08T17:42:02.898Z,996.05
2018-03-08T17:43:11.565Z,996.08
2018-03-08T17:44:20.217Z,996.14
2018-03-08T17:45:29.634Z,996.14
2018-03-08T17:46:38.553Z,996.21
2018-03-08T17:47:47.454Z,996.23
2018-03-08T17:48:56.111Z,996.24
2018-03-08T17:50:05.054Z,996.33
2018-03-08T17:51:13.973Z,996.32
2018-03-08T17:52:22.882Z,996.32
2018-03-08T17:53:31.783Z,996.43
2018-03-08T17:54:40.947Z,996.45
2018-03-08T17:55:49.882Z,996.42
2018-03-08T17:56:59.042Z,996.44
2018-03-08T17:58:07.950Z,996.49
2018-03-08T17:59:17.116Z,996.52
2018-03-08T18:00:25.770Z,996.55
2018-03-08T18:01:34.433Z,996.55
2018-03-08T18:02:43.612Z,996.59
2018-03-08T18:03:53.025Z,996.56
2018-03-08T18:05:01.911Z,996.62
2018-03-08T18:06:10.591Z,996.63
2018-03-08T18:07:19.503Z,996.6
2018-03-08T18:08:28.449Z,996.61
2018-03-08T18:09:37.857Z,996.66
2018-03-08T18:10:47.016Z,996.67
2018-03-08T18:11:55.932Z,996.67
2018-03-08T18:13:04.825Z,996.66
2018-03-08T18:14:13.487Z,996.68
2018-03-08T18:15:22.429Z,996.69
2018-03-08T18:16:32.945Z,996.69
2018-03-08T18:17:43.922Z,996.71
2018-03-08T18:18:53.207Z,996.74
2018-03-08T18:20:01.847Z,996.76
2018-03-08T18:21:11.201Z,996.74
2018-03-08T18:22:20.896Z,996.82
2018-03-08T18:23:30.571Z,996.79
2018-03-08T18:24:39.234Z,996.81
2018-03-08T18:25:48.886Z,996.8
2018-03-08T18:26:58.087Z,996.81
2018-03-08T18:28:06.986Z,996.83
2018-03-08T18:29:15.892Z,996.85
2018-03-08T18:30:25.061Z,996.88
2018-03-08T18:31:34.285Z,996.87
2018-03-08T18:32:43.472Z,996.93
2018-03-08T18:33:52.437Z,996.9
2018-03-08T18:35:02.034Z,996.94
2018-03-08T18:36:11.717Z,996.91
2018-03-08T18:37:21.412Z,996.95
2018-03-08T18:38:30.593Z,996.92
2018-03-08T18:39:39.509Z,997.02
2018-03-08T18:40:48.924Z,997
2018-03-08T18:41:58.105Z,996.98
2018-03-08T18:43:07.822Z,997.01
2018-03-08T18:44:16.995Z,996.98
2018-03-08T18:45:25.909Z,996.99
2018-03-08T18:46:34.849Z,997.02
2018-03-08T18:47:44.587Z,997.06
2018-03-08T18:48:53.999Z,997.01
2018-03-08T18:50:03.187Z,997.06
2018-03-08T18:51:11.966Z,997.07
2018-03-08T18:52:20.758Z,997.09
2018-03-08T18:53:29.667Z,997.09
2018-03-08T18:54:38.591Z,997.09
2018-03-08T18:55:47.531Z,997.09
2018-03-08T18:56:56.481Z,997.15
2018-03-08T18:58:05.382Z,997.15
2018-03-08T18:59:14.556Z,997.14
2018-03-08T19:00:23.898Z,997.17
2018-03-08T19:01:33.078Z,997.19
2018-03-08T19:02:42.270Z,997.22
2018-03-08T19:03:51.726Z,997.21
2018-03-08T19:05:00.971Z,997.22
2018-03-08T19:06:09.891Z,997.26
2018-03-08T19:07:18.557Z,997.23
2018-03-08T19:08:27.835Z,997.2
2018-03-08T19:09:36.479Z,997.24
2018-03-08T19:10:45.397Z,997.26
2018-03-08T19:11:54.341Z,997.26
2018-03-08T19:13:03.571Z,997.25
2018-03-08T19:14:13.399Z,997.35
2018-03-08T19:15:22.598Z,997.34
2018-03-08T19:16:31.803Z,997.4
2018-03-08T19:17:40.990Z,997.39
2018-03-08T19:18:50.146Z,997.38
2018-03-08T19:19:59.051Z,997.44
2018-03-08T19:21:07.973Z,997.49
2018-03-08T19:22:17.477Z,997.51
2018-03-08T19:23:26.423Z,997.56
2018-03-08T19:24:35.602Z,997.54
2018-03-08T19:25:44.565Z,997.6
2018-03-08T19:26:53.511Z,997.64
2018-03-08T19:28:02.996Z,997.65
2018-03-08T19:29:12.023Z,997.69
2018-03-08T19:30:20.771Z,997.72
2018-03-08T19:31:29.371Z,997.73
2018-03-08T19:32:38.425Z,997.75
2018-03-08T19:33:47.422Z,997.75
2018-03-08T19:34:56.941Z,997.83
2018-03-08T19:36:06.160Z,997.78
2018-03-08T19:37:15.623Z,997.82
2018-03-08T19:38:25.670Z,997.89
2018-03-08T19:39:34.626Z,997.9
2018-03-08T19:40:44.109Z,997.9
2018-03-08T19:41:53.382Z,997.92
2018-03-08T19:43:02.059Z,997.91
2018-03-08T19:44:10.981Z,997.94
2018-03-08T19:45:20.146Z,997.94
2018-03-08T19:46:30.078Z,997.92
2018-03-08T19:47:39.274Z,997.97
2018-03-08T19:48:48.484Z,997.96
2018-03-08T19:49:57.469Z,997.99
2018-03-08T19:51:07.232Z,998.05
2018-03-08T19:52:16.198Z,998.05
2018-03-08T19:53:25.637Z,998.03
2018-03-08T19:54:34.653Z,998.07
2018-03-08T19:55:43.885Z,998.09
2018-03-08T19:56:52.971Z,998.13
2018-03-08T19:58:02.083Z,998.15
2018-03-08T19:59:11.340Z,998.2
2018-03-08T20:00:20.576Z,998.15
2018-03-08T20:01:30.131Z,998.19
2018-03-08T20:02:39.130Z,998.18
2018-03-08T20:03:48.086Z,998.23
2018-03-08T20:04:57.025Z,998.25
2018-03-08T20:06:06.019Z,998.29
2018-03-08T20:07:15.047Z,998.27
2018-03-08T20:08:23.777Z,998.33
2018-03-08T20:09:33.136Z,998.31
2018-03-08T20:10:42.211Z,998.36
2018-03-08T20:11:51.829Z,998.33
2018-03-08T20:13:00.805Z,998.4
2018-03-08T20:14:09.857Z,998.47
2018-03-08T20:15:19.389Z,998.44
2018-03-08T20:16:28.889Z,998.5
2018-03-08T20:17:37.644Z,998.47
2018-03-08T20:18:47.173Z,998.51
2018-03-08T20:19:56.162Z,998.51
2018-03-08T20:21:05.019Z,998.51
2018-03-08T20:22:14.040Z,998.54
2018-03-08T20:23:23.223Z,998.56
2018-03-08T20:24:32.773Z,998.61
2018-03-08T20:25:41.802Z,998.63
2018-03-08T20:26:50.551Z,998.64
2018-03-08T20:27:59.531Z,998.68
2018-03-08T20:29:08.478Z,998.66
2018-03-08T20:30:17.408Z,998.71
2018-03-08T20:31:26.368Z,998.7
2018-03-08T20:32:35.292Z,998.73
2018-03-08T20:33:44.259Z,998.73
2018-03-08T20:34:53.528Z,998.82
2018-03-08T20:36:02.720Z,998.83
2018-03-08T20:37:11.633Z,998.77
2018-03-08T20:38:20.857Z,998.87
2018-03-08T20:39:29.776Z,998.82
2018-03-08T20:40:39.217Z,998.87
2018-03-08T20:41:48.147Z,998.88
2018-03-08T20:42:57.063Z,998.9
2018-03-08T20:44:05.740Z,998.94
2018-03-08T20:45:14.975Z,998.94
2018-03-08T20:46:23.884Z,998.92
2018-03-08T20:47:32.810Z,998.99
2018-03-08T20:48:41.993Z,998.97
2018-03-08T20:49:51.191Z,999
2018-03-08T20:51:00.617Z,999.02
2018-03-08T20:52:09.534Z,999
2018-03-08T20:53:18.948Z,999
2018-03-08T20:54:27.592Z,999.02
2018-03-08T20:55:37.024Z,998.97
2018-03-08T20:56:46.700Z,999.02
2018-03-08T20:57:55.875Z,999.06
2018-03-08T20:59:05.083Z,999.03
2018-03-08T21:00:14.514Z,999.09
2018-03-08T21:01:23.705Z,999.05
2018-03-08T21:02:32.869Z,999.12
2018-03-08T21:03:41.516Z,999.12
2018-03-08T21:04:50.426Z,999.11
2018-03-08T21:05:59.685Z,999.15
2018-03-08T21:07:08.884Z,999.17
2018-03-08T21:08:17.549Z,999.13
2018-03-08T21:09:26.443Z,999.15
2018-03-08T21:10:35.332Z,999.18
2018-03-08T21:11:44.495Z,999.17
2018-03-08T21:12:53.686Z,999.18